Weather Underground® Station Historical Data


Station Historical Data For Bruceton, TN. (K3JAE's Weather Station - KTNBRUCE2)
Daily Summary for:  January 2, 2018 Units:  Metric    English   Both
« Previous Day
Next Day »
Daily Weekly Monthly Yearly Custom
  High: Low: Average:
Temperature: -4.7 °C -15.4 °C -10.3 °C
Dew Point: -11.2 °C -18.9 °C -16.1 °C
Humidity: 82% 43% 64%
Wind Speed: 14.8km/h 0km/h 3.5km/h
Wind Gust: 14.8km/h - -
Wind- - ENE
Pressure: 1043.6 hPa 1030.7 hPa -
Precipitation: 0 mm    
Historical Graphs
 
 
Tabular Data for:  January 2, 2018
Time Temperature Dew Point Pressure Wind Wind Speed Wind Gust Humidity Rainfall Rate (Hourly) solar Conditions
00:01 -13.1 °C -18.4 °C 1042.5 hPa NE 13 km/h 13 km/h 64% 0 mm 0.0 W/m2 CLR
00:02 -13.1 °C -18.4 °C 1042.5 hPa NE 13 km/h 13 km/h 64% 0 mm 0.0 W/m2 CLR
00:07 -13.1 °C -18.5 °C 1042.5 hPa NNE 5.6 km/h 5.6 km/h 64% 0 mm 0.0 W/m2 CLR
00:10 -13.1 °C -18.5 °C 1042.5 hPa ENE 6.4 km/h 6.4 km/h 64% 0 mm 0.0 W/m2 CLR
00:14 -13.1 °C -18.5 °C 1042.5 hPa ENE 5.6 km/h 5.6 km/h 64% 0 mm 0.0 W/m2 CLR
00:17 -13.1 °C -18.7 °C 1042.5 hPa ENE 9.3 km/h 9.3 km/h 63% 0 mm 0.0 W/m2 CLR
00:19 -13.2 °C -18.7 °C 1042.5 hPa ENE 6.4 km/h 6.4 km/h 63% 0 mm 0.0 W/m2 CLR
00:23 -13.2 °C -18.6 °C 1042.5 hPa ENE 5.6 km/h 5.6 km/h 64% 0 mm 0.0 W/m2 CLR
00:26 -13.2 °C -18.6 °C 1042.5 hPa ENE 7.4 km/h 7.4 km/h 64% 0 mm 0.0 W/m2 CLR
00:30 -13.2 °C -18.6 °C 1042.5 hPa ENE 3.7 km/h 3.7 km/h 64% 0 mm 0.0 W/m2 CLR
00:34 -13.3 °C -18.4 °C 1042.5 hPa ENE 5.6 km/h 5.6 km/h 65% 0 mm 0.0 W/m2 CLR
00:39 -13.3 °C -18.7 °C 1042.5 hPa ENE 1.9 km/h 1.9 km/h 64% 0 mm 0.0 W/m2 CLR
00:40 -13.3 °C -18.4 °C 1042.5 hPa ENE 3.2 km/h 3.2 km/h 65% 0 mm 0.0 W/m2 CLR
00:45 -13.3 °C -18.5 °C 1042.5 hPa ENE 5.6 km/h 5.6 km/h 65% 0 mm 0.0 W/m2 CLR
00:46 -13.3 °C -18.5 °C 1042.5 hPa ENE 5.6 km/h 5.6 km/h 65% 0 mm 0.0 W/m2 CLR
00:51 -13.3 °C -18.5 °C 1042.5 hPa ENE 6.4 km/h 6.4 km/h 65% 0 mm 0.0 W/m2 CLR
00:56 -13.4 °C -18.8 °C 1042.5 hPa ENE 5.6 km/h 5.6 km/h 64% 0 mm 0.0 W/m2 CLR
00:57 -13.4 °C -18.6 °C 1042.5 hPa ENE 8 km/h 8 km/h 65% 0 mm 0.0 W/m2 CLR
01:02 -13.4 °C -18.6 °C 1042.5 hPa ENE 5.6 km/h 5.6 km/h 65% 0 mm 0.0 W/m2 CLR
01:08 -13.4 °C -18.6 °C 1042.5 hPa NNE 9.3 km/h 9.3 km/h 65% 0 mm 0.0 W/m2 CLR
01:13 -13.4 °C -18.8 °C 1042.5 hPa NNE 7.4 km/h 7.4 km/h 64% 0 mm 0.0 W/m2 CLR
01:16 -13.4 °C -18.6 °C 1042.5 hPa NE 5.6 km/h 5.6 km/h 65% 0 mm 0.0 W/m2 CLR
01:21 -13.4 °C -18.8 °C 1042.5 hPa NE 5.6 km/h 5.6 km/h 64% 0 mm 0.0 W/m2 CLR
01:25 -13.4 °C -18.8 °C 1042.9 hPa NE 5.6 km/h 5.6 km/h 64% 0 mm 0.0 W/m2 CLR
01:30 -13.4 °C -18.8 °C 1042.9 hPa NE 3.7 km/h 3.7 km/h 64% 0 mm 0.0 W/m2 CLR
01:32 -13.4 °C -18.6 °C 1042.9 hPa NE 1.9 km/h 1.9 km/h 65% 0 mm 0.0 W/m2 CLR
01:34 -13.4 °C -18.8 °C 1042.9 hPa NE 5.6 km/h 5.6 km/h 64% 0 mm 0.0 W/m2 CLR
01:39 -13.4 °C -18.8 °C 1042.9 hPa NE 5.6 km/h 5.6 km/h 64% 0 mm 0.0 W/m2 CLR
01:41 -13.4 °C -18.8 °C 1042.9 hPa NE 5.6 km/h 5.6 km/h 64% 0 mm 0.0 W/m2 CLR
01:44 -13.4 °C -18.8 °C 1042.9 hPa NE 5.6 km/h 5.6 km/h 64% 0 mm 0.0 W/m2 CLR
01:47 -13.5 °C -18.9 °C 1042.9 hPa NE 14.8 km/h 14.8 km/h 64% 0 mm 0.0 W/m2 CLR
01:52 -13.5 °C -18.9 °C 1043.2 hPa NE 8 km/h 8 km/h 64% 0 mm 0.0 W/m2 CLR
01:57 -13.5 °C -18.7 °C 1043.2 hPa NE 5.6 km/h 5.6 km/h 65% 0 mm 0.0 W/m2 CLR
02:02 -13.5 °C -18.7 °C 1043.2 hPa NE 5.6 km/h 5.6 km/h 65% 0 mm 0.0 W/m2 CLR
02:04 -13.5 °C -18.7 °C 1043.2 hPa NE 7.4 km/h 7.4 km/h 65% 0 mm 0.0 W/m2 CLR
02:08 -13.5 °C -18.7 °C 1043.2 hPa NE 3.7 km/h 3.7 km/h 65% 0 mm 0.0 W/m2 CLR
02:10 -13.5 °C -18.7 °C 1043.6 hPa NE 3.2 km/h 3.2 km/h 65% 0 mm 0.0 W/m2 CLR
02:15 -13.6 °C -18.6 °C 1043.6 hPa NE 1.9 km/h 1.9 km/h 66% 0 mm 0.0 W/m2 CLR
02:17 -13.6 °C -18.6 °C 1043.6 hPa NE 1.9 km/h 1.9 km/h 66% 0 mm 0.0 W/m2 CLR
02:22 -13.7 °C -18.7 °C 1043.6 hPa NE 1.9 km/h   66% 0 mm 0.0 W/m2 CLR
02:23 -13.7 °C -18.7 °C 1043.6 hPa NE 1.6 km/h   66% 0 mm 0.0 W/m2 CLR
02:29 -13.8 °C -18.8 °C 1043.2 hPa NE 1.9 km/h 1.9 km/h 66% 0 mm 0.0 W/m2 CLR
02:34 -13.9 °C -18.7 °C 1043.2 hPa Calm   0.5 km/h 67% 0 mm 0.0 W/m2 CLR
02:35 -13.9 °C -18.5 °C 1043.2 hPa NE 3.7 km/h 3.7 km/h 68% 0 mm 0.0 W/m2 CLR
02:40 -14 °C -18.6 °C 1043.2 hPa NE 3.7 km/h 3.7 km/h 68% 0 mm 0.0 W/m2 CLR
02:45 -14.1 °C -18.5 °C 1043.2 hPa NE 3.7 km/h 3.7 km/h 69% 0 mm 0.0 W/m2 CLR
02:47 -14.1 °C -18.5 °C 1043.2 hPa NE 3.7 km/h 3.7 km/h 69% 0 mm 0.0 W/m2 CLR
02:49 -14.1 °C -18.6 °C 1043.2 hPa NE 1.9 km/h 1.9 km/h 69% 0 mm 0.0 W/m2 CLR
02:54 -14.2 °C -18.4 °C 1043.2 hPa NE 1.9 km/h   70% 0 mm 0.0 W/m2 CLR
02:59 -14.2 °C -18.5 °C 1043.2 hPa Calm     70% 0 mm 0.0 W/m2 CLR
03:02 -14.3 °C -18.4 °C 1043.2 hPa Calm     71% 0 mm 0.0 W/m2 CLR
03:04 -14.3 °C -18.4 °C 1043.2 hPa Calm     71% 0 mm 0.0 W/m2 CLR
03:08 -14.4 °C -18.5 °C 1043.2 hPa Calm     71% 0 mm 0.0 W/m2 CLR
03:13 -14.4 °C -18.6 °C 1043.2 hPa NE 3.7 km/h 3.7 km/h 71% 0 mm 0.0 W/m2 CLR
03:14 -14.4 °C -18.6 °C 1043.2 hPa NE 1.9 km/h 1.9 km/h 71% 0 mm 0.0 W/m2 CLR
03:19 -14.5 °C -18.6 °C 1043.2 hPa NE 3.2 km/h 3.2 km/h 71% 0 mm 0.0 W/m2 CLR
03:20 -14.5 °C -18.4 °C 1043.2 hPa NE 3.7 km/h 3.7 km/h 72% 0 mm 0.0 W/m2 CLR
03:25 -14.6 °C -18.5 °C 1043.2 hPa Calm     72% 0 mm 0.0 W/m2 CLR
03:26 -14.6 °C -18.5 °C 1043.2 hPa Calm     72% 0 mm 0.0 W/m2 CLR
03:31 -14.6 °C -18.3 °C 1043.2 hPa Calm     73% 0 mm 0.0 W/m2 CLR
03:34 -14.6 °C -18.3 °C 1043.2 hPa Calm     73% 0 mm 0.0 W/m2 CLR
03:37 -14.6 °C -18.4 °C 1043.2 hPa Calm     73% 0 mm 0.0 W/m2 CLR
03:39 -14.6 °C -18.4 °C 1043.2 hPa Calm     73% 0 mm 0.0 W/m2 CLR
03:44 -14.6 °C -18.4 °C 1043.2 hPa Calm     73% 0 mm 0.0 W/m2 CLR
03:48 -14.7 °C -18.4 °C 1043.2 hPa Calm     73% 0 mm 0.0 W/m2 CLR
03:51 -14.7 °C -18.4 °C 1043.2 hPa Calm     73% 0 mm 0.0 W/m2 CLR
03:53 -14.7 °C -18.4 °C 1042.9 hPa Calm     73% 0 mm 0.0 W/m2 CLR
03:54 -14.7 °C -18.5 °C 1042.9 hPa Calm     73% 0 mm 0.0 W/m2 CLR
03:58 -14.7 °C -18.3 °C 1042.9 hPa Calm     74% 0 mm 0.0 W/m2 CLR
04:00 -14.8 °C -18.4 °C 1042.9 hPa NE 1.9 km/h 1.9 km/h 74% 0 mm 0.0 W/m2 CLR
04:05 -14.8 °C -18.4 °C 1042.9 hPa NE 3.7 km/h 3.7 km/h 74% 0 mm 0.0 W/m2 CLR
04:10 -14.8 °C -18.4 °C 1042.9 hPa NE 3.7 km/h 3.7 km/h 74% 0 mm 0.0 W/m2 CLR
04:15 -14.7 °C -18.3 °C 1042.9 hPa NE 1.9 km/h 1.9 km/h 74% 0 mm 0.0 W/m2 CLR
04:16 -14.8 °C -18.4 °C 1042.9 hPa NE 1.9 km/h 1.9 km/h 74% 0 mm 0.0 W/m2 CLR
04:21 -14.8 °C -18.2 °C 1042.9 hPa Calm     75% 0 mm 0.0 W/m2 CLR
04:24 -14.8 °C -18.3 °C 1042.9 hPa Calm     75% 0 mm 0.0 W/m2 CLR
04:27 -14.8 °C -18.1 °C 1042.9 hPa Calm     76% 0 mm 0.0 W/m2 CLR
04:32 -14.9 °C -18.2 °C 1042.9 hPa Calm     76% 0 mm 0.0 W/m2 CLR
04:33 -14.9 °C -18.2 °C 1042.9 hPa Calm     76% 0 mm 0.0 W/m2 CLR
04:38 -15 °C -18.3 °C 1042.9 hPa Calm     76% 0 mm 0.0 W/m2 CLR
04:40 -15 °C -18.1 °C 1042.9 hPa Calm     77% 0 mm 0.0 W/m2 CLR
04:45 -15 °C -18.1 °C 1042.9 hPa Calm     77% 0 mm 0.0 W/m2 CLR
04:50 -15.1 °C -18.1 °C 1042.9 hPa Calm     78% 0 mm 0.0 W/m2 CLR
04:51 -15.1 °C -18.1 °C 1042.9 hPa Calm     78% 0 mm 0.0 W/m2 CLR
04:53 -15.1 °C -18.1 °C 1042.9 hPa Calm     78% 0 mm 0.0 W/m2 CLR
04:57 -15.1 °C -18.1 °C 1042.9 hPa Calm     78% 0 mm 0.0 W/m2 CLR
05:02 -15.1 °C -17.9 °C 1042.9 hPa Calm     79% 0 mm 0.0 W/m2 CLR
05:05 -15.2 °C -18 °C 1042.9 hPa Calm   0.2 km/h 79% 0 mm 0.0 W/m2 CLR
05:07 -15.2 °C -18.1 °C 1042.9 hPa Calm     79% 0 mm 0.0 W/m2 CLR
05:12 -15.3 °C -18.1 °C 1042.9 hPa NE 1.9 km/h 1.9 km/h 79% 0 mm 0.0 W/m2 CLR
05:14 -15.3 °C -18.1 °C 1042.9 hPa NE 1.9 km/h 1.9 km/h 79% 0 mm 0.0 W/m2 CLR
05:19 -15.3 °C -18 °C 1042.9 hPa NE 3.2 km/h 3.2 km/h 80% 0 mm 0.0 W/m2 CLR
05:24 -15.4 °C -18.1 °C 1042.9 hPa NE 3.7 km/h 3.7 km/h 80% 0 mm 0.0 W/m2 CLR
05:26 -15.4 °C -18.1 °C 1042.9 hPa NE 3.7 km/h 3.7 km/h 80% 0 mm 0.0 W/m2 CLR
05:31 -15.4 °C -18.1 °C 1042.5 hPa NE 3.7 km/h 3.7 km/h 80% 0 mm 0.0 W/m2 CLR
05:32 -15.4 °C -18.1 °C 1042.5 hPa NE 3.7 km/h 3.7 km/h 80% 0 mm 0.0 W/m2 CLR
05:37 -15.3 °C -18.2 °C 1042.5 hPa NE 5.6 km/h 5.6 km/h 79% 0 mm 0.0 W/m2 CLR
05:42 -15.3 °C -18.2 °C 1042.5 hPa NE 5.6 km/h 5.6 km/h 79% 0 mm 0.0 W/m2 CLR
05:46 -15.3 °C -18.2 °C 1042.5 hPa NE 5.6 km/h 5.6 km/h 79% 0 mm 0.0 W/m2 CLR
05:49 -15.3 °C -18.2 °C 1042.5 hPa NE 7.4 km/h 7.4 km/h 79% 0 mm 0.0 W/m2 CLR
05:53 -15.3 °C -18.2 °C 1042.5 hPa NNE 7.4 km/h 7.4 km/h 79% 0 mm 0.0 W/m2 CLR
05:55 -15.3 °C -18.2 °C 1042.5 hPa NE 5.6 km/h 5.6 km/h 79% 0 mm 0.0 W/m2 CLR
05:59 -15.3 °C -18.2 °C 1042.5 hPa NE 5.6 km/h 5.6 km/h 79% 0 mm 0.0 W/m2 CLR
06:00 -15.3 °C -18.2 °C 1042.5 hPa NE 5.6 km/h 5.6 km/h 79% 0 mm 0.0 W/m2 CLR
06:05 -15.4 °C -18.2 °C 1042.5 hPa NE 5.6 km/h 5.6 km/h 79% 0 mm 0.0 W/m2 CLR
06:06 -15.3 °C -18.2 °C 1042.5 hPa NE 8 km/h 8 km/h 79% 0 mm 0.0 W/m2 CLR
06:08 -15.3 °C -18.2 °C 1042.5 hPa NE 8 km/h 8 km/h 79% 0 mm 0.0 W/m2 CLR
06:11 -15.3 °C -18.3 °C 1042.5 hPa NE 5.6 km/h 5.6 km/h 78% 0 mm 0.0 W/m2 CLR
06:16 -15.3 °C -18.3 °C 1042.5 hPa NNE 8 km/h 8 km/h 78% 0 mm 0.0 W/m2 CLR
06:18 -15.3 °C -18.3 °C 1042.5 hPa NNE 8 km/h 8 km/h 78% 0 mm 0.0 W/m2 CLR
06:23 -15.3 °C -18.3 °C 1042.9 hPa NE 7.4 km/h 7.4 km/h 78% 0 mm 0.0 W/m2 CLR
06:24 -15.3 °C -18.3 °C 1042.9 hPa NE 5.6 km/h 5.6 km/h 78% 0 mm 0.0 W/m2 CLR
06:26 -15.3 °C -18.3 °C 1042.9 hPa NE 3.7 km/h 3.7 km/h 78% 0 mm 0.0 W/m2 CLR
06:30 -15.3 °C -18.3 °C 1042.9 hPa NE 5.6 km/h 5.6 km/h 78% 0 mm 0.0 W/m2 CLR
06:34 -15.3 °C -18.3 °C 1042.9 hPa NE 5.6 km/h 5.6 km/h 78% 0 mm 0.0 W/m2 CLR
06:35 -15.3 °C -18.3 °C 1042.9 hPa NE 3.7 km/h 3.7 km/h 78% 0 mm 0.0 W/m2 CLR
06:40 -15.3 °C -18.3 °C 1043.2 hPa NNE 3.7 km/h 3.7 km/h 78% 0 mm 0.0 W/m2 CLR
06:41 -15.3 °C -18.3 °C 1043.2 hPa NNE 5.6 km/h 5.6 km/h 78% 0 mm 0.0 W/m2 CLR
06:42 -15.3 °C -18.3 °C 1043.2 hPa NNE 5.6 km/h 5.6 km/h 78% 0 mm 0.0 W/m2 CLR
06:47 -15.3 °C -18.3 °C 1043.2 hPa NNE 3.7 km/h 3.7 km/h 78% 0 mm 0.0 W/m2 CLR
06:49 -15.3 °C -18.3 °C 1043.2 hPa NNE 5.6 km/h 5.6 km/h 78% 0 mm 0.0 W/m2 CLR
06:54 -15.3 °C -18.2 °C 1043.2 hPa NNE 3.7 km/h 3.7 km/h 78% 0 mm 0.0 W/m2 CLR
06:55 -15.3 °C -18.2 °C 1043.2 hPa NNE 3.7 km/h 3.7 km/h 78% 0 mm 0.0 W/m2 CLR
07:02 -15.3 °C -18.2 °C 1043.2 hPa NNE 3.7 km/h 3.7 km/h 78% 0 mm 0.0 W/m2 CLR
07:07 -15.3 °C -18.2 °C 1043.2 hPa NNE 3.7 km/h   78% 0 mm 5.0 W/m2 CLR
07:08 -15.3 °C -18.2 °C 1043.2 hPa Calm     78% 0 mm 7.0 W/m2 CLR
07:13 -15.3 °C -18.3 °C 1043.2 hPa Calm     78% 0 mm 9.0 W/m2 CLR
07:17 -15.3 °C -18.2 °C 1043.2 hPa Calm     79% 0 mm 11.0 W/m2 CLR
07:19 -15.3 °C -18.2 °C 1043.6 hPa NNE 1.9 km/h 1.9 km/h 79% 0 mm 11.0 W/m2 CLR
07:24 -15.3 °C -18.2 °C 1043.2 hPa Calm     79% 0 mm 14.0 W/m2 CLR
07:29 -15.3 °C -18.2 °C 1043.2 hPa NNE 1.9 km/h 1.9 km/h 79% 0 mm 18.0 W/m2 CLR
07:37 -15.3 °C -18.2 °C 1043.6 hPa NNE 1.9 km/h 1.9 km/h 79% 0 mm 19.0 W/m2 CLR
07:40 -15.3 °C -17.9 °C 1043.6 hPa NNE 3.7 km/h 3.7 km/h 80% 0 mm 21.0 W/m2 CLR
07:44 -15.2 °C -18.1 °C 1043.6 hPa NNE 3.7 km/h 3.7 km/h 79% 0 mm 25.0 W/m2 CLR
07:46 -15.2 °C -18.1 °C 1043.6 hPa NNE 3.7 km/h 3.7 km/h 79% 0 mm 25.0 W/m2 CLR
07:51 -15.2 °C -18.1 °C 1043.6 hPa NNE 1.9 km/h 1.9 km/h 79% 0 mm 30.0 W/m2 CLR
07:52 -15.2 °C -18.1 °C 1043.6 hPa NNE 1.9 km/h 1.9 km/h 79% 0 mm 28.0 W/m2 CLR
07:55 -15.2 °C -18.1 °C 1043.6 hPa NNE 3.2 km/h 3.2 km/h 79% 0 mm 30.0 W/m2 CLR
07:57 -15.2 °C -18 °C 1043.6 hPa NNE 1.9 km/h   79% 0 mm 37.0 W/m2 CLR
08:03 -15 °C -17.8 °C 1043.6 hPa NNE 1.6 km/h 1.6 km/h 79% 0 mm 39.0 W/m2 CLR
08:07 -14.9 °C -17.7 °C 1043.6 hPa NNE 3.7 km/h 3.7 km/h 79% 0 mm 37.0 W/m2 CLR
08:12 -14.6 °C -17.6 °C 1043.2 hPa ENE 5.6 km/h 5.6 km/h 78% 0 mm 54.0 W/m2 CLR
08:13 -14.4 °C -17.6 °C 1043.2 hPa ENE 7.4 km/h 7.4 km/h 77% 0 mm 60.0 W/m2 CLR
08:18 -14.2 °C -17.5 °C 1043.6 hPa ENE 5.6 km/h 5.6 km/h 76% 0 mm 53.0 W/m2 CLR
08:23 -14 °C -17.4 °C 1043.2 hPa NE 11.1 km/h 11.1 km/h 75% 0 mm 60.0 W/m2 CLR
08:24 -14 °C -17.6 °C 1043.2 hPa ENE 11.1 km/h 11.1 km/h 74% 0 mm 56.0 W/m2 CLR
08:25 -14 °C -17.6 °C 1043.2 hPa NE 11.1 km/h 11.1 km/h 74% 0 mm 53.0 W/m2 CLR
08:29 -13.9 °C -17.6 °C 1043.2 hPa ENE 9.3 km/h 9.3 km/h 74% 0 mm 88.0 W/m2 CLR
08:34 -13.9 °C -17.5 °C 1043.2 hPa ENE 7.4 km/h 7.4 km/h 74% 0 mm 105.0 W/m2 CLR
08:36 -13.8 °C -17.4 °C 1043.2 hPa ENE 5.6 km/h 5.6 km/h 74% 0 mm 111.0 W/m2 CLR
08:41 -13.7 °C -17.4 °C 1043.2 hPa ENE 9.3 km/h 9.3 km/h 73% 0 mm 58.0 W/m2 CLR
08:42 -13.6 °C -17.4 °C 1043.2 hPa NE 7.4 km/h 7.4 km/h 73% 0 mm 76.0 W/m2 CLR
08:43 -13.7 °C -17.4 °C 1043.2 hPa ENE 8 km/h 8 km/h 73% 0 mm 81.0 W/m2 CLR
08:48 -13.6 °C -17.4 °C 1043.2 hPa NE 7.4 km/h 7.4 km/h 73% 0 mm 153.0 W/m2 CLR
08:49 -13.6 °C -17.4 °C 1043.2 hPa NE 5.6 km/h 5.6 km/h 73% 0 mm 79.0 W/m2 CLR
08:54 -13.3 °C -17.2 °C 1043.2 hPa NE 8 km/h 8 km/h 73% 0 mm 141.0 W/m2 CLR
09:00 -13.2 °C -17.4 °C 1043.2 hPa NE 6.4 km/h 6.4 km/h 71% 0 mm 46.0 W/m2 CLR
09:05 -13.2 °C -17.3 °C 1043.2 hPa ENE 13 km/h 13 km/h 71% 0 mm 142.0 W/m2 CLR
09:06 -13.1 °C -17.3 °C 1043.2 hPa ENE 7.4 km/h 7.4 km/h 71% 0 mm 121.0 W/m2 CLR
09:07 -13.1 °C -17.3 °C 1043.2 hPa ENE 5.6 km/h 5.6 km/h 71% 0 mm 111.0 W/m2 CLR
09:12 -12.9 °C -17.1 °C 1043.2 hPa NNE 11.1 km/h 11.1 km/h 71% 0 mm 304.0 W/m2 CLR
09:17 -12.7 °C -17.1 °C 1043.2 hPa NE 7.4 km/h 7.4 km/h 70% 0 mm 172.0 W/m2 CLR
09:22 -12.6 °C -16.9 °C 1043.2 hPa NNE 9.3 km/h 9.3 km/h 70% 0 mm 56.0 W/m2 CLR
09:23 -12.6 °C -16.9 °C 1043.2 hPa ENE 6.4 km/h 6.4 km/h 70% 0 mm 109.0 W/m2 CLR
09:28 -12.5 °C -17 °C 1043.2 hPa NE 5.6 km/h 5.6 km/h 69% 0 mm 141.0 W/m2 CLR
09:33 -12.3 °C -16.8 °C 1043.2 hPa East 5.6 km/h 5.6 km/h 69% 0 mm 265.0 W/m2 CLR
09:35 -12.2 °C -16.6 °C 1043.2 hPa East 5.6 km/h 5.6 km/h 70% 0 mm 202.0 W/m2 CLR
09:39 -12.1 °C -16.8 °C 1043.2 hPa ESE 5.6 km/h 5.6 km/h 68% 0 mm 111.0 W/m2 CLR
09:42 -11.9 °C -16.7 °C 1043.2 hPa East 5.6 km/h 5.6 km/h 68% 0 mm 181.0 W/m2 CLR
09:45 -11.8 °C -16.5 °C 1043.2 hPa East 5.6 km/h 5.6 km/h 68% 0 mm 241.0 W/m2 CLR
09:48 -11.8 °C -16.9 °C 1043.2 hPa East 9.3 km/h 9.3 km/h 66% 0 mm 251.0 W/m2 CLR
09:51 -11.9 °C -17 °C 1043.2 hPa East 5.6 km/h 5.6 km/h 66% 0 mm 234.0 W/m2 CLR
09:53 -11.9 °C -17 °C 1043.2 hPa East 7.4 km/h 7.4 km/h 66% 0 mm 139.0 W/m2 CLR
09:59 -11.8 °C -16.8 °C 1043.2 hPa East 3.7 km/h 3.7 km/h 66% 0 mm 255.0 W/m2 CLR
10:00 -11.7 °C -16.8 °C 1043.2 hPa East 5.6 km/h 5.6 km/h 66% 0 mm 255.0 W/m2 CLR
10:05 -11.5 °C -16.8 °C 1043.2 hPa East 3.7 km/h 3.7 km/h 65% 0 mm 308.0 W/m2 CLR
10:08 -11.4 °C -16.7 °C 1043.2 hPa East 5.6 km/h 5.6 km/h 65% 0 mm 308.0 W/m2 CLR
10:11 -11.3 °C -16.8 °C 1042.9 hPa East 5.6 km/h 5.6 km/h 64% 0 mm 360.0 W/m2 CLR
10:13 -11.3 °C -16.7 °C 1042.9 hPa East 3.2 km/h 3.2 km/h 64% 0 mm 294.0 W/m2 CLR
10:18 -11.1 °C -16.6 °C 1042.9 hPa East 5.6 km/h 5.6 km/h 64% 0 mm 367.0 W/m2 CLR
10:19 -11 °C -16.5 °C 1042.9 hPa East 5.6 km/h 5.6 km/h 64% 0 mm 367.0 W/m2 CLR
10:24 -11.1 °C -16.9 °C 1042.5 hPa East 3.7 km/h 3.7 km/h 62% 0 mm 239.0 W/m2 CLR
10:26 -11 °C -16.7 °C 1042.5 hPa East 5.6 km/h 5.6 km/h 63% 0 mm 330.0 W/m2 CLR
10:27 -10.9 °C -16.6 °C 1042.5 hPa East 5.6 km/h 5.6 km/h 63% 0 mm 410.0 W/m2 CLR
10:32 -10.5 °C -16 °C 1042.5 hPa NE 5.6 km/h 5.6 km/h 64% 0 mm 399.0 W/m2 CLR
10:33 -10.4 °C -16.2 °C 1042.5 hPa NE 5.6 km/h 5.6 km/h 63% 0 mm 360.0 W/m2 CLR
10:34 -10.3 °C -16.1 °C 1042.5 hPa NNE 5.6 km/h 5.6 km/h 63% 0 mm 272.0 W/m2 CLR
10:39 -10 °C -15.9 °C 1042.5 hPa ENE 4.8 km/h 4.8 km/h 62% 0 mm 345.0 W/m2 CLR
10:43 -9.9 °C -16.1 °C 1042.5 hPa East 3.7 km/h 3.7 km/h 61% 0 mm 255.0 W/m2 CLR
10:46 -9.9 °C -16 °C 1042.5 hPa East 5.6 km/h 5.6 km/h 61% 0 mm 269.0 W/m2 CLR
10:51 -9.9 °C -16 °C 1042.2 hPa WSW 5.6 km/h 5.6 km/h 61% 0 mm 320.0 W/m2 CLR
10:52 -9.9 °C -16.1 °C 1042.2 hPa WSW 5.6 km/h 5.6 km/h 61% 0 mm 313.0 W/m2 CLR
10:53 -9.9 °C -16.1 °C 1042.2 hPa WSW 5.6 km/h 5.6 km/h 61% 0 mm 272.0 W/m2 CLR
10:58 -9.7 °C -16 °C 1042.2 hPa North 5.6 km/h 5.6 km/h 60% 0 mm 350.0 W/m2 CLR
11:00 -9.7 °C -16.2 °C 1042.2 hPa North 5.6 km/h 5.6 km/h 59% 0 mm 385.0 W/m2 CLR
11:05 -9.7 °C -16.2 °C 1042.2 hPa West 4.8 km/h 4.8 km/h 59% 0 mm 487.0 W/m2 CLR
11:07 -9.6 °C -15.9 °C 1042.2 hPa West 9.3 km/h 9.3 km/h 60% 0 mm 476.0 W/m2 CLR
11:12 -9.6 °C -16.2 °C 1041.9 hPa NNE 8 km/h 8 km/h 59% 0 mm 436.0 W/m2 CLR
11:13 -9.5 °C -16.1 °C 1041.9 hPa NNE 9.3 km/h 9.3 km/h 59% 0 mm 480.0 W/m2 CLR
11:19 -9.2 °C -16.1 °C 1041.5 hPa NNE 5.6 km/h 5.6 km/h 57% 0 mm 469.0 W/m2 CLR
11:22 -8.9 °C -15.9 °C 1041.9 hPa NNE 5.6 km/h 5.6 km/h 57% 0 mm 522.0 W/m2 CLR
11:24 -8.7 °C -15.7 °C 1041.5 hPa NNE 3.7 km/h 3.7 km/h 57% 0 mm 520.0 W/m2 CLR
11:28 -8.5 °C -15.9 °C 1041.5 hPa NNE 5.6 km/h 5.6 km/h 55% 0 mm 520.0 W/m2 CLR
11:33 -8.5 °C -15.7 °C 1041.2 hPa East 5.6 km/h 5.6 km/h 56% 0 mm 473.0 W/m2 CLR
11:35 -8.5 °C -15.9 °C 1041.2 hPa ESE 5.6 km/h 5.6 km/h 55% 0 mm 529.0 W/m2 CLR
11:37 -8.5 °C -15.9 °C 1041.2 hPa ESE 3.7 km/h 3.7 km/h 55% 0 mm 439.0 W/m2 CLR
11:40 -8.4 °C -15.9 °C 1041.2 hPa ESE 1.9 km/h 1.9 km/h 55% 0 mm 483.0 W/m2 CLR
11:45 -8.5 °C -16.2 °C 1040.9 hPa West 5.6 km/h 5.6 km/h 54% 0 mm 476.0 W/m2 CLR
11:46 -8.5 °C -15.9 °C 1040.9 hPa West 5.6 km/h 5.6 km/h 55% 0 mm 457.0 W/m2 CLR
11:48 -8.4 °C -15.9 °C 1040.9 hPa West 5.6 km/h 5.6 km/h 55% 0 mm 452.0 W/m2 CLR
11:52 -8.1 °C -15.8 °C 1040.9 hPa WNW 5.6 km/h 5.6 km/h 54% 0 mm 512.0 W/m2 CLR
11:57 -8.1 °C -15.8 °C 1040.5 hPa West 5.6 km/h 5.6 km/h 54% 0 mm 487.0 W/m2 CLR
11:58 -8.1 °C -15.6 °C 1040.5 hPa West 5.6 km/h 5.6 km/h 55% 0 mm 483.0 W/m2 CLR
12:03 -8.1 °C -15.6 °C 1040.2 hPa West 1.9 km/h   55% 0 mm 490.0 W/m2 CLR
12:04 -8.1 °C -15.7 °C 1040.2 hPa East 6.4 km/h 6.4 km/h 54% 0 mm 513.0 W/m2 CLR
12:06 -8.1 °C -15.7 °C 1040.2 hPa ENE 11.1 km/h 11.1 km/h 54% 0 mm 531.0 W/m2 CLR
12:09 -8.1 °C -16 °C 1040.2 hPa ENE 7.4 km/h 7.4 km/h 53% 0 mm 508.0 W/m2 CLR
12:15 -7.8 °C -15.6 °C 1039.8 hPa ENE 7.4 km/h 7.4 km/h 54% 0 mm 534.0 W/m2 CLR
12:16 -7.7 °C -15.7 °C 1039.8 hPa ENE 5.6 km/h 5.6 km/h 53% 0 mm 531.0 W/m2 CLR
12:21 -7.4 °C -15.3 °C 1039.8 hPa ENE 3.7 km/h 3.7 km/h 53% 0 mm 482.0 W/m2 CLR
12:22 -7.3 °C -15.1 °C 1039.8 hPa ENE 3.7 km/h 3.7 km/h 54% 0 mm 501.0 W/m2 CLR
12:27 -6.9 °C -15.2 °C 1039.8 hPa ENE 5.6 km/h 5.6 km/h 52% 0 mm 362.0 W/m2 CLR
12:29 -6.9 °C -15.6 °C 1039.8 hPa ENE 5.6 km/h 5.6 km/h 50% 0 mm 362.0 W/m2 CLR
12:33 -6.8 °C -15.6 °C 1039.5 hPa NNW 5.6 km/h 5.6 km/h 50% 0 mm 385.0 W/m2 CLR
12:38 -6.6 °C -15.1 °C 1039.5 hPa NE 3.7 km/h 3.7 km/h 51% 0 mm 425.0 W/m2 CLR
12:40 -6.4 °C -15.2 °C 1039.5 hPa NNE 8 km/h 8 km/h 50% 0 mm 432.0 W/m2 CLR
12:44 -6.3 °C -15.6 °C 1039.2 hPa NE 7.4 km/h 7.4 km/h 48% 0 mm 480.0 W/m2 CLR
12:45 -6.4 °C -15.6 °C 1039.2 hPa ENE 7.4 km/h 7.4 km/h 48% 0 mm 545.0 W/m2 CLR
12:50 -6.5 °C -15.4 °C 1039.2 hPa WNW 11.1 km/h 11.1 km/h 49% 0 mm 526.0 W/m2 CLR
12:52 -6.4 °C -15.4 °C 1039.2 hPa West 5.6 km/h 5.6 km/h 49% 0 mm 520.0 W/m2 CLR
12:57 -6.4 °C -15.4 °C 1039.2 hPa NNE 3.7 km/h 3.7 km/h 49% 0 mm 512.0 W/m2 CLR
12:59 -6.4 °C -15.4 °C 1038.8 hPa NE 5.6 km/h 5.6 km/h 49% 0 mm 508.0 W/m2 CLR
13:04 -6.4 °C -15.1 °C 1038.8 hPa East 5.6 km/h 5.6 km/h 50% 0 mm 504.0 W/m2 CLR
13:09 -6.2 °C -15.4 °C 1038.8 hPa East 5.6 km/h 5.6 km/h 48% 0 mm 429.0 W/m2 CLR
13:10 -6.3 °C -15.5 °C 1038.8 hPa East 5.6 km/h 5.6 km/h 48% 0 mm 494.0 W/m2 CLR
13:11 -6.3 °C -15.3 °C 1038.8 hPa East 5.6 km/h 5.6 km/h 49% 0 mm 497.0 W/m2 CLR
13:16 -6.3 °C -15.5 °C 1038.5 hPa ENE 5.6 km/h 5.6 km/h 48% 0 mm 492.0 W/m2 CLR
13:17 -6.2 °C -15.4 °C 1038.5 hPa ENE 5.6 km/h 5.6 km/h 48% 0 mm 489.0 W/m2 CLR
13:19 -6.2 °C -15.2 °C 1038.5 hPa ENE 5.6 km/h 5.6 km/h 49% 0 mm 487.0 W/m2 CLR
13:22 -6 °C -15.3 °C 1038.1 hPa ENE 5.6 km/h 5.6 km/h 48% 0 mm 485.0 W/m2 CLR
13:24 -5.9 °C -15.2 °C 1038.1 hPa ENE 3.7 km/h 3.7 km/h 48% 0 mm 413.0 W/m2 CLR
13:29 -5.5 °C -15.3 °C 1038.1 hPa ENE 3.7 km/h 3.7 km/h 46% 0 mm 383.0 W/m2 CLR
13:32 -5.5 °C -15.1 °C 1038.1 hPa ENE 8 km/h 8 km/h 47% 0 mm 281.0 W/m2 CLR
13:37 -5.7 °C -15.3 °C 1038.1 hPa ENE 9.3 km/h 9.3 km/h 47% 0 mm 183.0 W/m2 CLR
13:41 -5.8 °C -15.3 °C 1037.8 hPa ENE 5.6 km/h 5.6 km/h 47% 0 mm 345.0 W/m2 CLR
13:43 -5.8 °C -15.3 °C 1037.8 hPa ENE 7.4 km/h 7.4 km/h 47% 0 mm 401.0 W/m2 CLR
13:46 -5.8 °C -15.3 °C 1037.8 hPa NNE 13 km/h 13 km/h 47% 0 mm 457.0 W/m2 CLR
13:51 -5.7 °C -15.3 °C 1037.8 hPa ENE 5.6 km/h 5.6 km/h 47% 0 mm 431.0 W/m2 CLR
13:53 -5.7 °C -15.3 °C 1037.8 hPa ENE 8 km/h 8 km/h 47% 0 mm 429.0 W/m2 CLR
13:56 -5.7 °C -15.2 °C 1037.5 hPa East 5.6 km/h 5.6 km/h 47% 0 mm 424.0 W/m2 CLR
13:58 -5.6 °C -15.4 °C 1037.5 hPa NE 7.4 km/h 7.4 km/h 46% 0 mm 417.0 W/m2 CLR
14:03 -5.2 °C -14.8 °C 1037.5 hPa NE 5.6 km/h 5.6 km/h 47% 0 mm 406.0 W/m2 CLR
14:04 -5.2 °C -14.7 °C 1037.5 hPa NE 5.6 km/h 5.6 km/h 47% 0 mm 404.0 W/m2 CLR
14:09 -4.9 °C -15.3 °C 1037.1 hPa North 5.6 km/h 5.6 km/h 44% 0 mm 390.0 W/m2 CLR
14:11 -4.9 °C -15.3 °C 1037.1 hPa North 5.6 km/h 5.6 km/h 44% 0 mm 390.0 W/m2 CLR
14:17 -4.8 °C -15.4 °C 1036.8 hPa NNE 7.4 km/h 7.4 km/h 43% 0 mm 371.0 W/m2 CLR
14:23 -4.8 °C -15.4 °C 1036.8 hPa NE 3.7 km/h 3.7 km/h 43% 0 mm 362.0 W/m2 CLR
14:24 -4.7 °C -15.4 °C 1036.8 hPa NE 5.6 km/h 5.6 km/h 43% 0 mm 362.0 W/m2 CLR
14:28 -4.8 °C -15.4 °C 1036.8 hPa NE 6.4 km/h 6.4 km/h 43% 0 mm 341.0 W/m2 CLR
14:30 -4.8 °C -15.4 °C 1036.8 hPa NNE 5.6 km/h 5.6 km/h 43% 0 mm 336.0 W/m2 CLR
14:35 -4.7 °C -15.4 °C 1036.8 hPa ENE 5.6 km/h 5.6 km/h 43% 0 mm 311.0 W/m2 CLR
14:37 -4.7 °C -15.1 °C 1036.8 hPa ENE 6.4 km/h 6.4 km/h 44% 0 mm 302.0 W/m2 CLR
14:42 -4.7 °C -15.4 °C 1036.5 hPa ENE 5.6 km/h 5.6 km/h 43% 0 mm 272.0 W/m2 CLR
14:47 -5 °C -15.7 °C 1036.5 hPa ENE 3.7 km/h 3.7 km/h 43% 0 mm 100.0 W/m2 CLR
14:50 -5.1 °C -15.7 °C 1036.5 hPa ENE 3.7 km/h 3.7 km/h 43% 0 mm 209.0 W/m2 CLR
14:55 -5.1 °C -15.7 °C 1036.5 hPa NNE 8 km/h 8 km/h 43% 0 mm 49.0 W/m2 CLR
14:56 -5.1 °C -15.7 °C 1036.5 hPa NE 7.4 km/h 7.4 km/h 43% 0 mm 56.0 W/m2 CLR
14:57 -5.1 °C -15.4 °C 1036.5 hPa NE 5.6 km/h 5.6 km/h 44% 0 mm 63.0 W/m2 CLR
15:02 -5.2 °C -15.8 °C 1036.5 hPa NE 4.8 km/h 4.8 km/h 43% 0 mm 53.0 W/m2 CLR
15:03 -5.2 °C -15.8 °C 1036.5 hPa NE 5.6 km/h 5.6 km/h 43% 0 mm 60.0 W/m2 CLR
15:04 -5.1 °C -15.5 °C 1036.5 hPa NE 3.7 km/h 3.7 km/h 44% 0 mm 60.0 W/m2 CLR
15:09 -5.2 °C -15.8 °C 1036.1 hPa ENE 3.7 km/h 3.7 km/h 43% 0 mm 90.0 W/m2 CLR
15:10 -5.2 °C -15.6 °C 1036.1 hPa ENE 3.7 km/h 3.7 km/h 44% 0 mm 105.0 W/m2 CLR
15:13 -5.1 °C -15.4 °C 1036.1 hPa Calm   0.6 km/h 44% 0 mm 81.0 W/m2 CLR
15:17 -5 °C -15.4 °C 1036.1 hPa NE 5.6 km/h 5.6 km/h 44% 0 mm 54.0 W/m2 CLR
15:22 -4.9 °C -15.6 °C 1036.1 hPa NE 4.8 km/h 4.8 km/h 43% 0 mm 97.0 W/m2 CLR
15:23 -4.9 °C -15.6 °C 1036.1 hPa NE 5.6 km/h 5.6 km/h 43% 0 mm 93.0 W/m2 CLR
15:28 -5 °C -15.7 °C 1036.1 hPa NE 5.6 km/h 5.6 km/h 43% 0 mm 60.0 W/m2 CLR
15:29 -5 °C -15.7 °C 1035.8 hPa NE 3.7 km/h 3.7 km/h 43% 0 mm 39.0 W/m2 CLR
15:31 -5 °C -15.7 °C 1035.8 hPa Calm     43% 0 mm 32.0 W/m2 CLR
15:35 -5 °C -15.4 °C 1036.1 hPa Calm     44% 0 mm 28.0 W/m2 CLR
15:40 -5.1 °C -15.5 °C 1035.8 hPa NE 5.6 km/h 5.6 km/h 44% 0 mm 26.0 W/m2 CLR
15:41 -5.2 °C -15.6 °C 1035.8 hPa NE 5.6 km/h 5.6 km/h 44% 0 mm 26.0 W/m2 CLR
15:46 -5.3 °C -15.4 °C 1035.8 hPa NE 5.6 km/h 5.6 km/h 45% 0 mm 26.0 W/m2 CLR
15:49 -5.4 °C -15.5 °C 1035.8 hPa NE 3.7 km/h 3.7 km/h 45% 0 mm 30.0 W/m2 CLR
15:56 -5.5 °C -15.6 °C 1035.8 hPa NE 1.9 km/h   45% 0 mm 25.0 W/m2 CLR
15:57 -5.5 °C -15.6 °C 1035.8 hPa Calm     45% 0 mm 26.0 W/m2 CLR
16:01 -5.6 °C -15.6 °C 1035.4 hPa NE 5.6 km/h 5.6 km/h 45% 0 mm 25.0 W/m2 CLR
16:06 -5.6 °C -15.7 °C 1035.4 hPa NE 3.7 km/h 3.7 km/h 45% 0 mm 25.0 W/m2 CLR
16:08 -5.7 °C -15.7 °C 1035.4 hPa NE 5.6 km/h 5.6 km/h 45% 0 mm 30.0 W/m2 CLR
16:12 -5.7 °C -15.7 °C 1035.4 hPa NE 3.7 km/h 3.7 km/h 45% 0 mm 33.0 W/m2 CLR
16:13 -5.7 °C -15.7 °C 1035.4 hPa NE 5.6 km/h 5.6 km/h 45% 0 mm 30.0 W/m2 CLR
16:18 -5.7 °C -15.8 °C 1035.1 hPa NE 5.6 km/h 5.6 km/h 45% 0 mm 26.0 W/m2 CLR
16:19 -5.7 °C -15.8 °C 1035.4 hPa NE 3.7 km/h 3.7 km/h 45% 0 mm 26.0 W/m2 CLR
16:24 -5.8 °C -15.6 °C 1035.1 hPa NE 3.7 km/h 3.7 km/h 46% 0 mm 25.0 W/m2 CLR
16:28 -5.8 °C -15.6 °C 1035.1 hPa NE 5.6 km/h 5.6 km/h 46% 0 mm 21.0 W/m2 CLR
16:32 -5.9 °C -15.7 °C 1035.1 hPa NE 5.6 km/h 5.6 km/h 46% 0 mm 19.0 W/m2 CLR
16:34 -5.9 °C -15.7 °C 1035.1 hPa NE 5.6 km/h 5.6 km/h 46% 0 mm 18.0 W/m2 CLR
16:39 -6 °C -15.8 °C 1035.1 hPa ENE 3.7 km/h 3.7 km/h 46% 0 mm 14.0 W/m2 CLR
16:40 -6 °C -15.8 °C 1035.1 hPa ENE 3.7 km/h 3.7 km/h 46% 0 mm 14.0 W/m2 CLR
16:42 -6.1 °C -15.6 °C 1035.1 hPa ENE 3.7 km/h 3.7 km/h 47% 0 mm 12.0 W/m2 CLR
16:47 -6.2 °C -15.7 °C 1035.1 hPa ENE 3.7 km/h 3.7 km/h 47% 0 mm 5.0 W/m2 CLR
16:48 -6.2 °C -16 °C 1035.1 hPa ENE 5.6 km/h 5.6 km/h 46% 0 mm 5.0 W/m2 CLR
16:53 -6.3 °C -16.3 °C 1035.1 hPa ENE 5.6 km/h 5.6 km/h 45% 0 mm 0.0 W/m2 CLR
16:54 -6.3 °C -16.3 °C 1035.1 hPa ENE 3.7 km/h 3.7 km/h 45% 0 mm 0.0 W/m2 CLR
16:56 -6.4 °C -16.1 °C 1035.1 hPa ENE 3.7 km/h 3.7 km/h 46% 0 mm 0.0 W/m2 CLR
17:00 -6.4 °C -16.4 °C 1035.1 hPa ENE 1.9 km/h 1.9 km/h 45% 0 mm 0.0 W/m2 CLR
17:03 -6.5 °C -16.5 °C 1035.1 hPa ENE 3.7 km/h 3.7 km/h 45% 0 mm 0.0 W/m2 CLR
17:05 -6.6 °C -16.6 °C 1035.1 hPa ENE 3.7 km/h 3.7 km/h 45% 0 mm 0.0 W/m2 CLR
17:10 -6.6 °C -16.6 °C 1035.1 hPa ENE 3.7 km/h 3.7 km/h 45% 0 mm 0.0 W/m2 CLR
17:11 -6.7 °C -16.7 °C 1035.1 hPa ENE 3.7 km/h 3.7 km/h 45% 0 mm 0.0 W/m2 CLR
17:12 -6.7 °C -16.7 °C 1035.1 hPa ENE 1.9 km/h 1.9 km/h 45% 0 mm 0.0 W/m2 CLR
17:18 -6.7 °C -16.4 °C 1035.1 hPa Calm     46% 0 mm 0.0 W/m2 CLR
17:19 -6.7 °C -16.4 °C 1035.1 hPa Calm     46% 0 mm 0.0 W/m2 CLR
17:23 -6.8 °C -16.2 °C 1035.1 hPa Calm     47% 0 mm 0.0 W/m2 CLR
17:24 -6.8 °C -16.2 °C 1035.1 hPa Calm     47% 0 mm 0.0 W/m2 CLR
17:30 -6.9 °C -16.1 °C 1035.1 hPa Calm     48% 0 mm 0.0 W/m2 CLR
17:31 -6.9 °C -16.4 °C 1035.1 hPa Calm     47% 0 mm 0.0 W/m2 CLR
17:35 -7 °C -16.4 °C 1035.1 hPa Calm     47% 0 mm 0.0 W/m2 CLR
17:39 -7.1 °C -16.1 °C 1035.1 hPa Calm     49% 0 mm 0.0 W/m2 CLR
17:40 -7.1 °C -16.1 °C 1035.1 hPa Calm     49% 0 mm 0.0 W/m2 CLR
17:44 -7.2 °C -16.3 °C 1034.8 hPa ENE 3.7 km/h 3.7 km/h 48% 0 mm 0.0 W/m2 CLR
17:48 -7.2 °C -16.4 °C 1034.8 hPa ENE 1.9 km/h 1.9 km/h 48% 0 mm 0.0 W/m2 CLR
17:53 -7.3 °C -16.4 °C 1034.8 hPa ENE 3.7 km/h 3.7 km/h 48% 0 mm 0.0 W/m2 CLR
17:54 -7.3 °C -16.4 °C 1034.8 hPa ENE 3.7 km/h 3.7 km/h 48% 0 mm 0.0 W/m2 CLR
17:59 -7.3 °C -16.2 °C 1034.8 hPa ENE 1.6 km/h 1.6 km/h 49% 0 mm 0.0 W/m2 CLR
18:03 -7.4 °C -16.6 °C 1034.4 hPa ENE 1.9 km/h 1.9 km/h 48% 0 mm 0.0 W/m2 CLR
18:06 -7.4 °C -16.3 °C 1034.4 hPa Calm     49% 0 mm 0.0 W/m2 CLR
18:09 -7.4 °C -16.3 °C 1034.4 hPa Calm     49% 0 mm 0.0 W/m2 CLR
18:12 -7.5 °C -16.4 °C 1034.4 hPa Calm     49% 0 mm 0.0 W/m2 CLR
18:16 -7.6 °C -16.2 °C 1034.4 hPa Calm     50% 0 mm 0.0 W/m2 CLR
18:19 -7.6 °C -16 °C 1034.4 hPa Calm     51% 0 mm 0.0 W/m2 CLR
18:21 -7.6 °C -16 °C 1034.4 hPa Calm     51% 0 mm 0.0 W/m2 CLR
18:24 -7.7 °C -16.1 °C 1034.4 hPa Calm     51% 0 mm 0.0 W/m2 CLR
18:28 -7.7 °C -16.1 °C 1034.4 hPa Calm     51% 0 mm 0.0 W/m2 CLR
18:33 -7.7 °C -15.9 °C 1034.4 hPa Calm     52% 0 mm 0.0 W/m2 CLR
18:35 -7.8 °C -15.9 °C 1034.4 hPa Calm     52% 0 mm 0.0 W/m2 CLR
18:36 -7.8 °C -15.9 °C 1034.4 hPa Calm     52% 0 mm 0.0 W/m2 CLR
18:41 -7.8 °C -15.1 °C 1034.4 hPa ENE 3.7 km/h 3.7 km/h 56% 0 mm 0.0 W/m2 CLR
18:42 -7.9 °C -15.2 °C 1034.4 hPa ENE 3.7 km/h 3.7 km/h 56% 0 mm 0.0 W/m2 CLR
18:46 -8.1 °C -15.1 °C 1034.1 hPa ENE 1.9 km/h   57% 0 mm 0.0 W/m2 CLR
18:49 -8.1 °C -14.9 °C 1034.1 hPa Calm     58% 0 mm 0.0 W/m2 CLR
18:54 -8.2 °C -15.2 °C 1034.1 hPa ENE 1.9 km/h 1.9 km/h 57% 0 mm 0.0 W/m2 CLR
18:59 -8.3 °C -14.9 °C 1034.1 hPa Calm   0.2 km/h 59% 0 mm 0.0 W/m2 CLR
19:04 -8.3 °C -14.9 °C 1034.1 hPa Calm     59% 0 mm 0.0 W/m2 SCT
19:05 -8.3 °C -14.9 °C 1034.1 hPa Calm     59% 0 mm 0.0 W/m2 SCT
19:10 -8.4 °C -14.6 °C 1034.1 hPa Calm     61% 0 mm 0.0 W/m2 SCT
19:14 -8.5 °C -14.5 °C 1034.1 hPa Calm     62% 0 mm 0.0 W/m2 SCT
19:16 -8.5 °C -14.5 °C 1034.1 hPa Calm     62% 0 mm 0.0 W/m2 SCT
19:21 -8.6 °C -14.6 °C 1033.7 hPa Calm     62% 0 mm 0.0 W/m2 SCT
19:26 -8.6 °C -14.6 °C 1033.7 hPa Calm     62% 0 mm 0.0 W/m2 SCT
19:29 -8.6 °C -14.4 °C 1033.7 hPa Calm     63% 0 mm 0.0 W/m2 SCT
19:33 -8.7 °C -14.1 °C 1033.7 hPa Calm     65% 0 mm 0.0 W/m2 SCT
19:35 -8.7 °C -14.1 °C 1033.7 hPa Calm     65% 0 mm 0.0 W/m2 SCT
19:39 -8.7 °C -13.9 °C 1033.7 hPa Calm     66% 0 mm 0.0 W/m2 SCT
19:42 -8.8 °C -14 °C 1033.7 hPa Calm     66% 0 mm 0.0 W/m2 SCT
19:47 -8.8 °C -14.2 °C 1033.4 hPa Calm     65% 0 mm 0.0 W/m2 SCT
19:48 -8.8 °C -14.2 °C 1033.4 hPa Calm     65% 0 mm 0.0 W/m2 SCT
19:53 -8.9 °C -14.1 °C 1033.4 hPa Calm     66% 0 mm 0.0 W/m2 SCT
19:56 -8.9 °C -14.1 °C 1033.4 hPa Calm     66% 0 mm 0.0 W/m2 SCT
20:01 -8.9 °C -13.9 °C 1033.4 hPa Calm     67% 0 mm 0.0 W/m2 CLR
20:03 -8.9 °C -13.9 °C 1033.4 hPa Calm     67% 0 mm 0.0 W/m2 CLR
20:07 -9 °C -14 °C 1033.4 hPa Calm     67% 0 mm 0.0 W/m2 CLR
20:08 -9 °C -14 °C 1033.4 hPa Calm     67% 0 mm 0.0 W/m2 CLR
20:13 -9.1 °C -14.1 °C 1033.4 hPa Calm     67% 0 mm 0.0 W/m2 CLR
20:14 -9.1 °C -14.1 °C 1033.4 hPa Calm     67% 0 mm 0.0 W/m2 CLR
20:17 -9.1 °C -13.9 °C 1033.4 hPa Calm     68% 0 mm 0.0 W/m2 CLR
20:20 -9.1 °C -13.9 °C 1033.4 hPa Calm     68% 0 mm 0.0 W/m2 CLR
20:23 -9.1 °C -13.8 °C 1033.4 hPa Calm     69% 0 mm 0.0 W/m2 CLR
20:26 -9.1 °C -13.8 °C 1033.1 hPa Calm     69% 0 mm 0.0 W/m2 CLR
20:28 -9.1 °C -13.8 °C 1033.1 hPa Calm     69% 0 mm 0.0 W/m2 CLR
20:32 -9.1 °C -13.8 °C 1033.1 hPa Calm     69% 0 mm 0.0 W/m2 CLR
20:35 -9.1 °C -13.6 °C 1033.4 hPa Calm     70% 0 mm 0.0 W/m2 CLR
20:40 -9.1 °C -13.4 °C 1033.4 hPa Calm     71% 0 mm 0.0 W/m2 CLR
20:41 -9.1 °C -13.4 °C 1033.4 hPa Calm     71% 0 mm 0.0 W/m2 CLR
20:46 -9.1 °C -13.6 °C 1033.1 hPa Calm     70% 0 mm 0.0 W/m2 CLR
20:51 -9.1 °C -13.3 °C 1033.1 hPa Calm     71% 0 mm 0.0 W/m2 CLR
20:54 -9 °C -13.1 °C 1033.1 hPa Calm     72% 0 mm 0.0 W/m2 CLR
20:59 -9 °C -12.8 °C 1032.7 hPa Calm     74% 0 mm 0.0 W/m2 CLR
21:00 -9 °C -12.6 °C 1032.7 hPa Calm     75% 0 mm 0.0 W/m2 CLR
21:02 -9 °C -12.6 °C 1032.7 hPa Calm     75% 0 mm 0.0 W/m2 CLR
21:05 -9 °C -12.6 °C 1032.7 hPa Calm     75% 0 mm 0.0 W/m2 CLR
21:10 -9 °C -12.4 °C 1032.7 hPa Calm     76% 0 mm 0.0 W/m2 CLR
21:14 -9 °C -12.4 °C 1032.7 hPa Calm     76% 0 mm 0.0 W/m2 CLR
21:19 -9 °C -12.1 °C 1032.7 hPa Calm     78% 0 mm 0.0 W/m2 CLR
21:24 -9 °C -12.3 °C 1032.7 hPa Calm     77% 0 mm 0.0 W/m2 CLR
21:29 -9 °C -12.3 °C 1032.7 hPa Calm     77% 0 mm 0.0 W/m2 CLR
21:30 -8.9 °C -12.2 °C 1032.7 hPa Calm     77% 0 mm 0.0 W/m2 CLR
21:35 -8.8 °C -12 °C 1032.7 hPa Calm     78% 0 mm 0.0 W/m2 CLR
21:39 -8.8 °C -12.1 °C 1032.7 hPa Calm     77% 0 mm 0.0 W/m2 CLR
21:44 -8.7 °C -12 °C 1032.4 hPa Calm     77% 0 mm 0.0 W/m2 CLR
21:47 -8.7 °C -12 °C 1032.4 hPa Calm     77% 0 mm 0.0 W/m2 CLR
21:48 -8.7 °C -12 °C 1032.4 hPa Calm     77% 0 mm 0.0 W/m2 CLR
21:53 -8.7 °C -11.8 °C 1032.4 hPa Calm     78% 0 mm 0.0 W/m2 CLR
21:54 -8.7 °C -11.7 °C 1032.4 hPa Calm     79% 0 mm 0.0 W/m2 CLR
21:57 -8.7 °C -11.7 °C 1032.1 hPa Calm     79% 0 mm 0.0 W/m2 CLR
21:59 -8.7 °C -11.7 °C 1032.4 hPa Calm     79% 0 mm 0.0 W/m2 CLR
22:02 -8.7 °C -11.7 °C 1032.1 hPa Calm     79% 0 mm 0.0 W/m2 CLR
22:05 -8.7 °C -11.7 °C 1032.4 hPa Calm     79% 0 mm 0.0 W/m2 CLR
22:09 -8.7 °C -11.5 °C 1032.1 hPa Calm     80% 0 mm 0.0 W/m2 CLR
22:10 -8.7 °C -11.7 °C 1032.1 hPa Calm     79% 0 mm 0.0 W/m2 CLR
22:15 -8.7 °C -11.5 °C 1032.1 hPa Calm     80% 0 mm 0.0 W/m2 CLR
22:16 -8.7 °C -11.5 °C 1032.1 hPa Calm     80% 0 mm 0.0 W/m2 CLR
22:21 -8.7 °C -11.5 °C 1032.1 hPa Calm     80% 0 mm 0.0 W/m2 CLR
22:26 -8.7 °C -11.7 °C 1032.1 hPa Calm     79% 0 mm 0.0 W/m2 CLR
22:27 -8.7 °C -11.7 °C 1032.1 hPa Calm     79% 0 mm 0.0 W/m2 CLR
22:30 -8.7 °C -11.6 °C 1032.1 hPa Calm     80% 0 mm 0.0 W/m2 CLR
22:33 -8.7 °C -11.6 °C 1032.1 hPa Calm     80% 0 mm 0.0 W/m2 CLR
22:38 -8.7 °C -11.7 °C 1032.1 hPa Calm     79% 0 mm 0.0 W/m2 CLR
22:39 -8.7 °C -11.7 °C 1032.1 hPa Calm     79% 0 mm 0.0 W/m2 CLR
22:41 -8.7 °C -11.7 °C 1032.1 hPa Calm     79% 0 mm 0.0 W/m2 CLR
22:45 -8.7 °C -11.6 °C 1031.7 hPa Calm     80% 0 mm 0.0 W/m2 CLR
22:50 -8.7 °C -11.5 °C 1031.7 hPa Calm     80% 0 mm 0.0 W/m2 CLR
22:55 -8.7 °C -11.3 °C 1031.7 hPa Calm     81% 0 mm 0.0 W/m2 CLR
22:57 -8.6 °C -11.3 °C 1031.7 hPa Calm     81% 0 mm 0.0 W/m2 CLR
23:02 -8.6 °C -11.3 °C 1031.7 hPa Calm     81% 0 mm 0.0 W/m2 CLR
23:03 -8.6 °C -11.3 °C 1031.7 hPa Calm     81% 0 mm 0.0 W/m2 CLR
23:04 -8.6 °C -11.3 °C 1031.7 hPa Calm     81% 0 mm 0.0 W/m2 CLR
23:09 -8.6 °C -11.3 °C 1031.4 hPa Calm     81% 0 mm 0.0 W/m2 CLR
23:12 -8.6 °C -11.4 °C 1031.4 hPa Calm     80% 0 mm 0.0 W/m2 CLR
23:16 -8.6 °C -11.4 °C 1031.4 hPa Calm     80% 0 mm 0.0 W/m2 CLR
23:21 -8.7 °C -11.3 °C 1031.4 hPa Calm     81% 0 mm 0.0 W/m2 CLR
23:23 -8.7 °C -11.5 °C 1031.4 hPa Calm     80% 0 mm 0.0 W/m2 CLR
23:26 -8.7 °C -11.3 °C 1031.4 hPa Calm     81% 0 mm 0.0 W/m2 CLR
23:31 -8.7 °C -11.3 °C 1031.4 hPa Calm     81% 0 mm 0.0 W/m2 CLR
23:36 -8.7 °C -11.3 °C 1031 hPa ENE 1.9 km/h 1.9 km/h 81% 0 mm 0.0 W/m2 CLR
23:42 -8.7 °C -11.3 °C 1031 hPa Calm     81% 0 mm 0.0 W/m2 CLR
23:43 -8.7 °C -11.3 °C 1031 hPa ENE 1.9 km/h 1.9 km/h 81% 0 mm 0.0 W/m2 CLR
23:48 -8.7 °C -11.2 °C 1030.7 hPa ENE 1.9 km/h 1.9 km/h 82% 0 mm 0.0 W/m2 CLR
23:49 -8.7 °C -11.2 °C 1030.7 hPa ENE 3.7 km/h 3.7 km/h 82% 0 mm 0.0 W/m2 CLR
23:54 -8.7 °C -11.4 °C 1030.7 hPa Calm     81% 0 mm 0.0 W/m2 CLR
23:55 -8.7 °C -11.4 °C 1030.7 hPa Calm     81% 0 mm 0.0 W/m2 CLR
23:56 -8.7 °C -11.4 °C 1030.7 hPa Calm     81% 0 mm 0.0 W/m2 CLR
Bruceton, TN. NWS Weather Forecast
Compliments of:  Weather Underground - 6 mb

Interesting Weather Facts
LONGEST RAIN FREE PERIOD
The longest rain-free period in the United States was 767 days (2 years, 37 days), from October 3, 1912 to November 8, 1914 at Bagdad, California.